Time;durP1;ratioP1;P1;durP2;ratioP2;P2;SDS_P1;SDS_P2;PMS_P1;PMS_P2;Temp;Humidity;BMP_temperature;BMP_pressure;BME280_temperature;BME280_humidity;BME280_pressure;Samples;Min_cycle;Max_cycle;Signal;HPM_P1;HPM_P2
2021/10/31 00:00:59;;;;;;;32.93;24.00;;;;;;;;;;5042848;28;20280;-71
2021/10/31 00:03:26;;;;;;;34.03;25.30;;;;;;;;;;5039307;28;20286;-71
2021/10/31 00:05:52;;;;;;;35.47;26.10;;;;;;;;;;5038791;28;20271;-71
2021/10/31 00:08:19;;;;;;;40.80;29.13;;;;;;;;;;5037703;28;20284;-72
2021/10/31 00:10:46;;;;;;;35.40;26.20;;;;;;;;;;5039267;28;20225;-71
2021/10/31 00:13:13;;;;;;;34.80;25.13;;;;;;;;;;5039922;28;20307;-72
2021/10/31 00:15:40;;;;;;;37.50;27.30;;;;;;;;;;5037540;28;20218;-72
2021/10/31 00:18:07;;;;;;;36.50;28.10;;;;;;;;;;5041483;28;20221;-72
2021/10/31 00:20:34;;;;;;;28.60;23.80;;;;;;;;;;5040495;28;20315;-72
2021/10/31 00:23:00;;;;;;;33.27;24.77;;;;;;;;;;5039276;28;20244;-71
2021/10/31 00:25:26;;;;;;;35.60;26.40;;;;;;;;;;5038991;28;20610;-72
2021/10/31 00:27:53;;;;;;;32.53;24.80;;;;;;;;;;5038286;28;20239;-72
2021/10/31 00:30:19;;;;;;;41.77;26.10;;;;;;;;;;5037314;28;20220;-71
2021/10/31 00:32:47;;;;;;;34.37;25.03;;;;;;;;;;5038407;28;20750;-72
2021/10/31 00:35:13;;;;;;;34.73;23.30;;;;;;;;;;5038461;28;20230;-71
2021/10/31 00:37:40;;;;;;;30.17;22.63;;;;;;;;;;5038195;28;20281;-72
2021/10/31 00:40:07;;;;;;;28.40;22.50;;;;;;;;;;5038502;28;20288;-71
2021/10/31 00:42:34;;;;;;;29.23;22.53;;;;;;;;;;5037259;28;20626;-72
2021/10/31 00:45:00;;;;;;;32.13;23.87;;;;;;;;;;5039476;28;20210;-72
2021/10/31 00:47:26;;;;;;;26.20;21.47;;;;;;;;;;5037923;28;20237;-71
2021/10/31 00:49:54;;;;;;;33.30;24.07;;;;;;;;;;5039700;28;20232;-72
2021/10/31 00:52:21;;;;;;;27.13;21.30;;;;;;;;;;5038856;28;20548;-72
2021/10/31 00:54:49;;;;;;;30.20;23.13;;;;;;;;;;5040667;28;20280;-72
2021/10/31 00:57:16;;;;;;;31.13;22.87;;;;;;;;;;5038976;28;20224;-72
2021/10/31 00:59:42;;;;;;;30.57;22.60;;;;;;;;;;5041189;28;20268;-72
2021/10/31 01:02:12;;;;;;;31.30;23.93;;;;;;;;;;5036658;28;20586;-72
2021/10/31 01:04:43;;;;;;;29.63;23.40;;;;;;;;;;5036574;28;20234;-72
2021/10/31 01:07:20;;;;;;;31.20;23.47;;;;;;;;;;5037351;28;20287;-72
2021/10/31 01:09:58;;;;;;;33.73;22.00;;;;;;;;;;5037843;28;20301;-72
2021/10/31 01:12:37;;;;;;;29.50;22.17;;;;;;;;;;5038501;28;20819;-72
2021/10/31 01:15:16;;;;;;;28.30;22.70;;;;;;;;;;5037204;28;20256;-73
2021/10/31 01:17:59;;;;;;;32.57;24.93;;;;;;;;;;5038125;28;20250;-72
2021/10/31 01:20:34;;;;;;;30.97;21.83;;;;;;;;;;5037279;28;20312;-72
2021/10/31 01:23:21;;;;;;;37.83;25.73;;;;;;;;;;5040208;28;20226;-72
2021/10/31 01:25:58;;;;;;;28.40;22.57;;;;;;;;;;5039281;28;20291;-72
2021/10/31 01:28:41;;;;;;;39.70;26.70;;;;;;;;;;5036947;28;20259;-73
2021/10/31 01:31:15;;;;;;;31.20;22.77;;;;;;;;;;5037142;28;20234;-72
2021/10/31 01:33:48;;;;;;;33.13;23.43;;;;;;;;;;5038319;28;20812;-72
2021/10/31 01:36:22;;;;;;;33.07;24.30;;;;;;;;;;5039277;28;20344;-72
2021/10/31 01:38:57;;;;;;;32.30;25.90;;;;;;;;;;5038401;28;20233;-72
2021/10/31 01:41:39;;;;;;;34.87;26.30;;;;;;;;;;5038514;28;20323;-72
2021/10/31 01:44:17;;;;;;;34.87;26.73;;;;;;;;;;5036902;28;20222;-72
2021/10/31 01:46:56;;;;;;;38.50;27.00;;;;;;;;;;5038018;28;20221;-72
2021/10/31 01:49:29;;;;;;;38.53;26.10;;;;;;;;;;5036157;28;20268;-72
2021/10/31 01:51:59;;;;;;;43.10;29.30;;;;;;;;;;5037807;28;20844;-72
2021/10/31 01:54:34;;;;;;;37.97;28.63;;;;;;;;;;5036768;28;20231;-72
2021/10/31 01:57:06;;;;;;;39.43;30.03;;;;;;;;;;5036565;28;20213;-72
2021/10/31 01:59:37;;;;;;;49.07;33.20;;;;;;;;;;5037234;28;20224;-71
2021/10/31 02:02:06;;;;;;;47.57;32.57;;;;;;;;;;5039622;28;20212;-72
2021/10/31 02:04:35;;;;;;;41.63;32.37;;;;;;;;;;5037007;28;20233;-72
2021/10/31 02:07:03;;;;;;;46.10;33.33;;;;;;;;;;5036429;28;20209;-72
2021/10/31 02:09:32;;;;;;;50.37;34.40;;;;;;;;;;5037222;28;20701;-72
2021/10/31 02:12:01;;;;;;;49.07;34.80;;;;;;;;;;5036838;28;20222;-72
2021/10/31 02:14:28;;;;;;;49.97;34.80;;;;;;;;;;5037340;28;20300;-72
2021/10/31 02:16:56;;;;;;;46.80;35.03;;;;;;;;;;5037702;28;20278;-72
2021/10/31 02:19:25;;;;;;;57.23;37.60;;;;;;;;;;5036563;28;20267;-72
2021/10/31 02:21:56;;;;;;;42.80;32.23;;;;;;;;;;5037953;28;20215;-72
2021/10/31 02:24:23;;;;;;;44.83;33.30;;;;;;;;;;5037175;28;20233;-72
2021/10/31 02:26:50;;;;;;;45.17;35.20;;;;;;;;;;5037339;28;20262;-72
2021/10/31 02:29:17;;;;;;;52.30;35.77;;;;;;;;;;5038703;28;20600;-72
2021/10/31 02:31:44;;;;;;;44.73;35.30;;;;;;;;;;5036788;28;20244;-72
2021/10/31 02:34:11;;;;;;;51.80;38.37;;;;;;;;;;5037720;28;20266;-72
2021/10/31 02:36:38;;;;;;;55.60;39.27;;;;;;;;;;5036826;28;20790;-72
2021/10/31 02:39:05;;;;;;;49.77;36.23;;;;;;;;;;5035259;28;20243;-72
2021/10/31 02:41:34;;;;;;;44.47;37.60;;;;;;;;;;5035409;28;20214;-72
2021/10/31 02:44:01;;;;;;;50.60;37.30;;;;;;;;;;5038081;28;20242;-72
2021/10/31 02:46:31;;;;;;;59.63;40.70;;;;;;;;;;5037652;28;20275;-72
2021/10/31 02:48:58;;;;;;;54.80;38.30;;;;;;;;;;5037456;28;21057;-72
2021/10/31 02:51:34;;;;;;;50.20;37.97;;;;;;;;;;5038166;28;20215;-72
2021/10/31 02:54:07;;;;;;;48.73;38.73;;;;;;;;;;5037070;28;20227;-72
2021/10/31 02:56:41;;;;;;;51.83;38.67;;;;;;;;;;5038381;28;20824;-72
2021/10/31 02:59:16;;;;;;;54.77;38.43;;;;;;;;;;5037189;28;20607;-72
2021/10/31 03:01:43;;;;;;;54.53;40.17;;;;;;;;;;5036236;28;20266;-72
2021/10/31 03:04:10;;;;;;;55.70;40.07;;;;;;;;;;5039478;28;20598;-72
2021/10/31 03:06:37;;;;;;;48.87;38.17;;;;;;;;;;5039416;28;20299;-72
2021/10/31 03:09:04;;;;;;;55.67;38.10;;;;;;;;;;5039172;28;20632;-72
2021/10/31 03:11:30;;;;;;;50.50;37.30;;;;;;;;;;5039256;28;20588;-72
2021/10/31 03:13:58;;;;;;;61.57;42.33;;;;;;;;;;5040282;28;20213;-72
2021/10/31 03:16:24;;;;;;;47.53;36.83;;;;;;;;;;5041197;28;20610;-72
2021/10/31 03:18:50;;;;;;;59.07;40.20;;;;;;;;;;5039922;28;20678;-72
2021/10/31 03:21:17;;;;;;;55.37;39.93;;;;;;;;;;5041185;28;20215;-71
2021/10/31 03:23:43;;;;;;;49.20;37.93;;;;;;;;;;5041127;28;20711;-72
2021/10/31 03:26:10;;;;;;;51.53;36.90;;;;;;;;;;5039838;28;20299;-72
2021/10/31 03:28:36;;;;;;;51.70;37.93;;;;;;;;;;5039901;28;20259;-71
2021/10/31 03:31:04;;;;;;;47.70;37.93;;;;;;;;;;5039445;28;20237;-71
2021/10/31 03:33:30;;;;;;;55.63;38.23;;;;;;;;;;5040384;28;20206;-72
2021/10/31 03:35:57;;;;;;;46.03;35.27;;;;;;;;;;5040810;28;20541;-71
2021/10/31 03:38:25;;;;;;;51.17;35.90;;;;;;;;;;5040981;28;20233;-72
2021/10/31 03:40:52;;;;;;;52.70;36.50;;;;;;;;;;5041266;28;20737;-72
2021/10/31 03:43:19;;;;;;;56.27;36.37;;;;;;;;;;5040464;28;20320;-72
2021/10/31 03:45:47;;;;;;;47.43;35.00;;;;;;;;;;5037698;28;20267;-71
2021/10/31 03:48:15;;;;;;;50.87;37.03;;;;;;;;;;5042284;28;20253;-72
2021/10/31 03:50:42;;;;;;;48.60;35.23;;;;;;;;;;5041364;28;20228;-72
2021/10/31 03:53:08;;;;;;;52.97;35.97;;;;;;;;;;5041691;28;20216;-72
2021/10/31 03:55:35;;;;;;;53.50;35.53;;;;;;;;;;5041955;28;20758;-72
2021/10/31 03:58:01;;;;;;;55.33;36.00;;;;;;;;;;5038915;28;20283;-71
2021/10/31 04:00:27;;;;;;;57.67;36.10;;;;;;;;;;5040595;28;20239;-72
2021/10/31 04:02:54;;;;;;;48.63;34.03;;;;;;;;;;5038379;28;20270;-72
2021/10/31 04:05:21;;;;;;;49.17;35.80;;;;;;;;;;5039666;28;20321;-72
2021/10/31 04:07:48;;;;;;;48.83;35.43;;;;;;;;;;5039178;28;20778;-72
2021/10/31 04:10:15;;;;;;;43.93;34.07;;;;;;;;;;5040244;28;20261;-72
2021/10/31 04:12:41;;;;;;;43.77;32.33;;;;;;;;;;5037243;28;20225;-72
2021/10/31 04:15:08;;;;;;;48.87;34.30;;;;;;;;;;5039638;28;20220;-72
2021/10/31 04:17:34;;;;;;;51.43;34.77;;;;;;;;;;5039182;28;20259;-72
2021/10/31 04:20:01;;;;;;;52.60;33.83;;;;;;;;;;5038747;28;20276;-72
2021/10/31 04:22:30;;;;;;;58.50;37.73;;;;;;;;;;5039715;28;20231;-72
2021/10/31 04:24:56;;;;;;;48.53;32.63;;;;;;;;;;5040140;28;20233;-72
2021/10/31 04:27:23;;;;;;;48.27;35.70;;;;;;;;;;5038177;28;20682;-72
2021/10/31 04:29:49;;;;;;;51.63;34.03;;;;;;;;;;5038840;28;20680;-72
2021/10/31 04:32:16;;;;;;;45.03;30.80;;;;;;;;;;5038338;28;20298;-72
2021/10/31 04:34:42;;;;;;;43.07;31.33;;;;;;;;;;5038863;28;20312;-72
2021/10/31 04:37:09;;;;;;;50.33;32.80;;;;;;;;;;5041828;28;20264;-72
2021/10/31 04:39:37;;;;;;;47.30;32.50;;;;;;;;;;5038414;28;20289;-72
2021/10/31 04:42:05;;;;;;;46.13;32.47;;;;;;;;;;5038858;28;20652;-72
2021/10/31 04:44:32;;;;;;;42.93;31.57;;;;;;;;;;5041211;28;20237;-72
2021/10/31 04:46:59;;;;;;;46.83;32.20;;;;;;;;;;5039594;28;20259;-72
2021/10/31 04:49:26;;;;;;;42.13;30.70;;;;;;;;;;5038290;28;20235;-72
2021/10/31 04:51:53;;;;;;;43.37;30.43;;;;;;;;;;5037067;28;20205;-72
2021/10/31 04:54:19;;;;;;;42.17;29.93;;;;;;;;;;5037874;28;20279;-72
2021/10/31 04:56:47;;;;;;;40.10;29.27;;;;;;;;;;5038027;28;20217;-72
2021/10/31 04:59:14;;;;;;;41.67;29.43;;;;;;;;;;5038867;28;20218;-72
2021/10/31 05:01:40;;;;;;;44.43;29.40;;;;;;;;;;5038603;28;20212;-71
2021/10/31 05:04:06;;;;;;;35.20;26.67;;;;;;;;;;5038708;28;20237;-72
2021/10/31 05:06:33;;;;;;;40.27;28.03;;;;;;;;;;5040492;28;20239;-72
2021/10/31 05:08:59;;;;;;;38.17;29.57;;;;;;;;;;5036684;28;20236;-72
2021/10/31 05:11:26;;;;;;;39.17;29.03;;;;;;;;;;5037306;28;20244;-72
2021/10/31 05:13:54;;;;;;;39.40;26.43;;;;;;;;;;5036850;28;20642;-72
2021/10/31 05:16:21;;;;;;;39.80;28.43;;;;;;;;;;5036586;28;20231;-72
2021/10/31 05:18:47;;;;;;;42.17;29.30;;;;;;;;;;5036496;28;20234;-72
2021/10/31 05:21:14;;;;;;;40.00;28.67;;;;;;;;;;5036875;28;20267;-72
2021/10/31 05:23:40;;;;;;;41.30;28.57;;;;;;;;;;5038604;28;20236;-72
2021/10/31 05:26:07;;;;;;;40.87;28.43;;;;;;;;;;5036858;28;20217;-72
2021/10/31 05:28:33;;;;;;;40.23;26.13;;;;;;;;;;5037800;28;20216;-72
2021/10/31 05:31:01;;;;;;;36.53;24.43;;;;;;;;;;5038775;28;20214;-72
2021/10/31 05:33:28;;;;;;;34.30;25.33;;;;;;;;;;5044269;28;20213;-79
2021/10/31 05:35:54;;;;;;;44.97;28.27;;;;;;;;;;5045594;28;20212;-78
2021/10/31 05:38:20;;;;;;;40.27;27.30;;;;;;;;;;5047988;28;21055;-78
2021/10/31 05:40:48;;;;;;;38.83;28.77;;;;;;;;;;5042948;28;20274;-78
2021/10/31 05:43:14;;;;;;;35.80;25.27;;;;;;;;;;5042805;28;20291;-78
2021/10/31 05:45:41;;;;;;;42.53;27.10;;;;;;;;;;5039728;28;20281;-78
2021/10/31 05:48:09;;;;;;;44.33;29.23;;;;;;;;;;5040838;28;20262;-78
2021/10/31 05:50:35;;;;;;;35.40;25.17;;;;;;;;;;5041683;28;20279;-77
2021/10/31 05:53:03;;;;;;;34.73;25.57;;;;;;;;;;5040227;28;20204;-78
2021/10/31 05:55:29;;;;;;;40.10;26.37;;;;;;;;;;5039964;28;20672;-78
2021/10/31 05:57:56;;;;;;;37.43;25.77;;;;;;;;;;5040957;28;20279;-78
2021/10/31 06:00:22;;;;;;;39.37;25.07;;;;;;;;;;5040411;28;20212;-78
2021/10/31 06:02:49;;;;;;;31.73;24.57;;;;;;;;;;5040185;28;20216;-78
2021/10/31 06:05:18;;;;;;;41.63;26.03;;;;;;;;;;5039957;28;20235;-78
2021/10/31 06:07:44;;;;;;;35.47;24.43;;;;;;;;;;5040813;28;20662;-78
2021/10/31 06:10:12;;;;;;;38.00;24.73;;;;;;;;;;5041884;28;20241;-78
2021/10/31 06:12:42;;;;;;;31.70;23.97;;;;;;;;;;5040840;28;20625;-77
2021/10/31 06:15:09;;;;;;;31.93;22.57;;;;;;;;;;5040994;28;20207;-77
2021/10/31 06:17:35;;;;;;;41.83;24.27;;;;;;;;;;5040089;28;20215;-78
2021/10/31 06:20:02;;;;;;;29.83;22.43;;;;;;;;;;5038320;28;20639;-77
2021/10/31 06:22:30;;;;;;;39.83;24.70;;;;;;;;;;5041070;28;20209;-78
2021/10/31 06:24:56;;;;;;;34.67;23.13;;;;;;;;;;5040005;28;20237;-78
2021/10/31 06:27:23;;;;;;;40.63;24.10;;;;;;;;;;5040618;28;20536;-78
2021/10/31 06:29:49;;;;;;;37.07;23.43;;;;;;;;;;5042405;28;20209;-78
2021/10/31 06:32:16;;;;;;;37.13;24.43;;;;;;;;;;5044448;28;20618;-78
2021/10/31 06:34:42;;;;;;;40.03;25.17;;;;;;;;;;5043233;28;20229;-78
2021/10/31 06:37:09;;;;;;;32.10;23.47;;;;;;;;;;5043448;28;20639;-78
2021/10/31 06:39:37;;;;;;;44.07;25.33;;;;;;;;;;5043553;28;20229;-78
2021/10/31 06:42:04;;;;;;;32.00;22.83;;;;;;;;;;5044748;28;20212;-78
2021/10/31 06:44:30;;;;;;;39.97;25.77;;;;;;;;;;5043702;28;20327;-78
2021/10/31 06:46:57;;;;;;;35.93;24.33;;;;;;;;;;5046564;28;20793;-78
2021/10/31 06:49:23;;;;;;;37.37;26.03;;;;;;;;;;5045787;28;20232;-78
2021/10/31 06:51:49;;;;;;;39.33;25.13;;;;;;;;;;5047026;28;20227;-78
2021/10/31 06:54:16;;;;;;;38.13;23.67;;;;;;;;;;5050945;28;20228;-78
2021/10/31 06:56:43;;;;;;;35.10;23.37;;;;;;;;;;5048592;28;20224;-78
2021/10/31 06:59:10;;;;;;;34.83;23.17;;;;;;;;;;5047839;28;20241;-78
2021/10/31 07:01:36;;;;;;;38.47;25.33;;;;;;;;;;5049211;28;20199;-78
2021/10/31 07:04:06;;;;;;;36.13;23.83;;;;;;;;;;5046308;28;20821;-78
2021/10/31 07:06:33;;;;;;;37.83;23.13;;;;;;;;;;5047290;28;20320;-80
2021/10/31 07:08:59;;;;;;;31.10;21.57;;;;;;;;;;5041235;28;20227;-77
2021/10/31 07:11:25;;;;;;;28.80;20.23;;;;;;;;;;5045209;28;20229;-80
2021/10/31 07:13:53;;;;;;;32.10;21.13;;;;;;;;;;5040664;28;20237;-77
2021/10/31 07:16:20;;;;;;;26.80;19.50;;;;;;;;;;5033870;28;20213;-78
2021/10/31 07:18:46;;;;;;;31.60;21.93;;;;;;;;;;5051352;28;20232;-78
2021/10/31 07:21:13;;;;;;;28.53;19.30;;;;;;;;;;5050647;28;20212;-78
2021/10/31 07:23:39;;;;;;;27.63;18.73;;;;;;;;;;5052074;28;20649;-78
2021/10/31 07:26:07;;;;;;;31.90;21.30;;;;;;;;;;5038670;28;20280;-76
2021/10/31 07:28:34;;;;;;;29.53;20.77;;;;;;;;;;5034008;28;20227;-76
2021/10/31 07:31:04;;;;;;;31.63;20.60;;;;;;;;;;5033721;28;20248;-76
2021/10/31 07:33:31;;;;;;;28.17;20.23;;;;;;;;;;5034086;28;20208;-76
2021/10/31 07:35:57;;;;;;;30.10;20.73;;;;;;;;;;5033368;28;20210;-76
2021/10/31 07:38:24;;;;;;;30.23;19.33;;;;;;;;;;5037266;28;20706;-76
2021/10/31 07:40:51;;;;;;;29.10;19.73;;;;;;;;;;5034220;28;20222;-76
2021/10/31 07:43:18;;;;;;;32.37;21.47;;;;;;;;;;5035135;28;20225;-76
2021/10/31 07:45:44;;;;;;;35.10;21.43;;;;;;;;;;5035767;28;20235;-76
2021/10/31 07:48:12;;;;;;;27.57;19.63;;;;;;;;;;5035769;28;20570;-76
2021/10/31 07:50:40;;;;;;;35.83;22.17;;;;;;;;;;5034126;28;20229;-76
2021/10/31 07:53:09;;;;;;;34.43;22.43;;;;;;;;;;5038835;28;20589;-76
2021/10/31 07:55:38;;;;;;;37.87;25.23;;;;;;;;;;5037825;28;20584;-76
2021/10/31 07:58:05;;;;;;;43.57;24.40;;;;;;;;;;5037052;28;20573;-76
2021/10/31 08:00:33;;;;;;;40.17;24.70;;;;;;;;;;5039072;28;20651;-76
2021/10/31 08:03:00;;;;;;;43.67;25.17;;;;;;;;;;5035939;28;20588;-76
2021/10/31 08:05:28;;;;;;;40.07;25.70;;;;;;;;;;5035281;28;20654;-76
2021/10/31 08:07:57;;;;;;;39.77;24.07;;;;;;;;;;5036898;28;20204;-76
2021/10/31 08:10:23;;;;;;;32.17;23.07;;;;;;;;;;5037238;28;20222;-76
2021/10/31 08:12:50;;;;;;;33.37;24.13;;;;;;;;;;5039612;28;20903;-76
2021/10/31 08:15:17;;;;;;;29.77;21.57;;;;;;;;;;5033105;28;20215;-76
2021/10/31 08:17:43;;;;;;;31.77;23.00;;;;;;;;;;5037659;28;20223;-76
2021/10/31 08:20:11;;;;;;;32.57;23.17;;;;;;;;;;5037120;28;20329;-75
2021/10/31 08:22:39;;;;;;;33.00;21.90;;;;;;;;;;5038034;28;20220;-75
2021/10/31 08:25:06;;;;;;;30.43;23.43;;;;;;;;;;5035459;28;20700;-76
2021/10/31 08:27:33;;;;;;;31.77;22.07;;;;;;;;;;5036778;28;20216;-75
2021/10/31 08:30:00;;;;;;;25.87;21.00;;;;;;;;;;5033878;28;20216;-75
2021/10/31 08:32:28;;;;;;;25.57;21.30;;;;;;;;;;5032994;28;20679;-75
2021/10/31 08:34:54;;;;;;;26.77;19.57;;;;;;;;;;5036778;28;20226;-75
2021/10/31 08:37:21;;;;;;;24.87;18.87;;;;;;;;;;5034332;28;20225;-76
2021/10/31 08:39:49;;;;;;;25.63;20.53;;;;;;;;;;5036244;28;20233;-75
2021/10/31 08:42:16;;;;;;;26.13;20.17;;;;;;;;;;5034843;28;20222;-75
2021/10/31 08:44:42;;;;;;;23.50;19.33;;;;;;;;;;5037763;28;20230;-77
2021/10/31 08:47:09;;;;;;;23.77;19.07;;;;;;;;;;5037466;28;20210;-75
2021/10/31 08:49:35;;;;;;;22.57;18.40;;;;;;;;;;5036708;28;20665;-75
2021/10/31 08:52:05;;;;;;;20.03;17.73;;;;;;;;;;5036299;28;20215;-75
2021/10/31 08:54:33;;;;;;;21.60;18.00;;;;;;;;;;5038356;28;20241;-75
2021/10/31 08:57:01;;;;;;;20.33;18.07;;;;;;;;;;5039019;28;20317;-77
2021/10/31 08:59:27;;;;;;;20.07;17.67;;;;;;;;;;5039735;28;20624;-77
2021/10/31 09:01:54;;;;;;;19.17;17.10;;;;;;;;;;5036904;28;20213;-77
2021/10/31 09:04:20;;;;;;;18.67;16.07;;;;;;;;;;5037433;28;20243;-77
2021/10/31 09:06:46;;;;;;;18.47;16.43;;;;;;;;;;5037153;28;20241;-77
2021/10/31 09:09:13;;;;;;;17.97;16.07;;;;;;;;;;5034212;28;20242;-77
2021/10/31 09:11:40;;;;;;;19.67;16.47;;;;;;;;;;5037143;28;20870;-77
2021/10/31 09:14:07;;;;;;;18.80;16.83;;;;;;;;;;5036344;28;20219;-75
2021/10/31 09:16:34;;;;;;;17.47;15.77;;;;;;;;;;5034937;28;20556;-74
2021/10/31 09:19:01;;;;;;;17.23;15.43;;;;;;;;;;5038728;28;20678;-75
2021/10/31 09:21:28;;;;;;;15.63;14.13;;;;;;;;;;5035181;28;20271;-75
2021/10/31 09:23:55;;;;;;;15.57;13.90;;;;;;;;;;5034792;28;20239;-74
2021/10/31 09:26:21;;;;;;;14.57;13.07;;;;;;;;;;5035912;28;20226;-74
2021/10/31 09:28:48;;;;;;;14.60;13.10;;;;;;;;;;5037340;28;20288;-74
2021/10/31 09:31:17;;;;;;;12.73;10.77;;;;;;;;;;5035753;28;20708;-76
2021/10/31 09:33:43;;;;;;;12.97;11.63;;;;;;;;;;5036522;28;20268;-76
2021/10/31 09:36:12;;;;;;;12.20;11.00;;;;;;;;;;5036891;28;20713;-75
2021/10/31 09:38:38;;;;;;;13.13;11.77;;;;;;;;;;5038185;28;20234;-76
2021/10/31 09:41:05;;;;;;;11.83;10.63;;;;;;;;;;5038393;28;20254;-76
2021/10/31 09:43:41;;;;;;;10.77;9.77;;;;;;;;;;5036857;28;20210;-76
2021/10/31 09:46:08;;;;;;;10.33;9.33;;;;;;;;;;5034786;28;20226;-76
2021/10/31 09:48:36;;;;;;;9.10;8.10;;;;;;;;;;5037049;28;20276;-75
2021/10/31 09:51:04;;;;;;;9.37;8.57;;;;;;;;;;5037640;28;20210;-76
2021/10/31 09:53:31;;;;;;;9.37;8.57;;;;;;;;;;5037450;28;21355;-76
2021/10/31 09:55:58;;;;;;;8.87;7.97;;;;;;;;;;5037415;28;20642;-75
2021/10/31 09:58:31;;;;;;;8.80;7.90;;;;;;;;;;5035027;28;21070;-76
2021/10/31 10:00:58;;;;;;;8.53;7.63;;;;;;;;;;5037750;28;20226;-76
2021/10/31 10:03:35;;;;;;;14.77;8.13;;;;;;;;;;5036920;28;20657;-76
2021/10/31 10:06:14;;;;;;;8.83;7.33;;;;;;;;;;5037534;28;20248;-76
2021/10/31 10:08:57;;;;;;;7.80;6.97;;;;;;;;;;5037136;28;20210;-76
2021/10/31 10:11:23;;;;;;;8.03;6.73;;;;;;;;;;5036254;28;20318;-76
2021/10/31 10:13:50;;;;;;;7.17;6.03;;;;;;;;;;5038615;28;20215;-78
2021/10/31 10:16:29;;;;;;;7.57;5.60;;;;;;;;;;5040417;28;20711;-78
2021/10/31 10:18:56;;;;;;;5.90;5.20;;;;;;;;;;5037622;28;20350;-78
2021/10/31 10:21:26;;;;;;;5.90;5.40;;;;;;;;;;5041487;28;20217;-78
2021/10/31 10:23:56;;;;;;;5.50;5.00;;;;;;;;;;5040323;28;20730;-78
2021/10/31 10:26:25;;;;;;;5.33;4.87;;;;;;;;;;5039624;28;20231;-78
2021/10/31 10:28:52;;;;;;;5.30;4.83;;;;;;;;;;5038819;28;20211;-78
2021/10/31 10:31:20;;;;;;;7.67;5.27;;;;;;;;;;5038464;28;20270;-78
2021/10/31 10:33:49;;;;;;;5.47;4.10;;;;;;;;;;5039164;28;20256;-77
2021/10/31 10:36:17;;;;;;;4.97;4.23;;;;;;;;;;5038073;28;20242;-78
2021/10/31 10:38:59;;;;;;;4.90;4.40;;;;;;;;;;5036698;28;20238;-77
2021/10/31 10:41:49;;;;;;;4.97;4.47;;;;;;;;;;5037634;28;20334;-77
2021/10/31 10:44:19;;;;;;;4.37;3.83;;;;;;;;;;5038082;28;20210;-78
2021/10/31 10:46:46;;;;;;;4.53;3.87;;;;;;;;;;5038530;28;20620;-78
2021/10/31 10:49:17;;;;;;;4.90;4.23;;;;;;;;;;5039893;28;20235;-78
2021/10/31 10:51:43;;;;;;;3.93;3.53;;;;;;;;;;5038633;28;20230;-78
2021/10/31 10:54:12;;;;;;;4.03;3.67;;;;;;;;;;5037674;28;20231;-78
2021/10/31 10:56:59;;;;;;;3.97;3.40;;;;;;;;;;5039703;28;20210;-78
2021/10/31 10:59:26;;;;;;;4.83;3.50;;;;;;;;;;5039440;28;20208;-78
2021/10/31 11:02:08;;;;;;;3.47;3.17;;;;;;;;;;5036887;28;20210;-76
2021/10/31 11:04:35;;;;;;;3.40;3.10;;;;;;;;;;5036226;28;20226;-77
2021/10/31 11:07:01;;;;;;;4.83;2.80;;;;;;;;;;5036671;28;20815;-76
2021/10/31 11:09:37;;;;;;;4.00;3.27;;;;;;;;;;5035718;28;20231;-76
2021/10/31 11:12:25;;;;;;;3.90;2.83;;;;;;;;;;5035176;28;20241;-76
2021/10/31 11:14:53;;;;;;;4.47;3.30;;;;;;;;;;5036708;28;20265;-77
2021/10/31 11:17:20;;;;;;;3.47;2.87;;;;;;;;;;5036296;28;20208;-77
2021/10/31 11:19:47;;;;;;;3.63;2.57;;;;;;;;;;5036523;28;20219;-77
2021/10/31 11:22:15;;;;;;;3.37;3.07;;;;;;;;;;5035879;28;20242;-76
2021/10/31 11:24:46;;;;;;;3.40;2.90;;;;;;;;;;5035922;28;20261;-77
2021/10/31 11:27:13;;;;;;;3.17;2.47;;;;;;;;;;5041132;28;20229;-77
2021/10/31 11:29:42;;;;;;;4.10;2.40;;;;;;;;;;5039903;28;20303;-76
2021/10/31 11:32:10;;;;;;;2.63;2.43;;;;;;;;;;5038412;28;21298;-79
2021/10/31 11:34:37;;;;;;;2.87;2.07;;;;;;;;;;5041358;28;20234;-77
2021/10/31 11:37:03;;;;;;;4.23;2.73;;;;;;;;;;5038104;28;20218;-77
2021/10/31 11:39:31;;;;;;;3.17;2.70;;;;;;;;;;5039291;28;20234;-77
2021/10/31 11:41:59;;;;;;;2.80;2.20;;;;;;;;;;5039727;28;20228;-77
2021/10/31 11:44:29;;;;;;;3.27;2.17;;;;;;;;;;5039166;28;20519;-77
2021/10/31 11:46:56;;;;;;;3.47;1.83;;;;;;;;;;5039375;28;20261;-77
2021/10/31 11:49:22;;;;;;;2.10;1.70;;;;;;;;;;5038468;28;20289;-77
2021/10/31 11:51:50;;;;;;;6.57;2.50;;;;;;;;;;5040124;28;20233;-77
2021/10/31 11:54:18;;;;;;;3.83;2.20;;;;;;;;;;5040077;28;20306;-77
2021/10/31 11:56:50;;;;;;;2.63;2.30;;;;;;;;;;5037968;28;20674;-76
2021/10/31 11:59:20;;;;;;;2.10;1.90;;;;;;;;;;5039248;28;20211;-76
2021/10/31 12:01:48;;;;;;;2.77;2.00;;;;;;;;;;5039210;28;20247;-76
2021/10/31 12:07:38;;;;;;;2.40;2.20;;;;;;;;;;5034712;28;20242;-76
2021/10/31 12:10:24;;;;;;;3.63;1.97;;;;;;;;;;5034650;28;20571;-77
2021/10/31 12:13:09;;;;;;;3.30;2.00;;;;;;;;;;5038241;28;20221;-76
2021/10/31 12:15:37;;;;;;;2.27;1.83;;;;;;;;;;5030602;28;20360;-76
2021/10/31 12:18:05;;;;;;;3.43;1.90;;;;;;;;;;5038903;28;20297;-77
2021/10/31 12:20:50;;;;;;;3.67;2.50;;;;;;;;;;5039397;28;20243;-77
2021/10/31 12:23:24;;;;;;;5.30;2.13;;;;;;;;;;5038418;28;20244;-76
2021/10/31 12:25:51;;;;;;;2.93;1.80;;;;;;;;;;5038611;28;20222;-77
2021/10/31 12:28:38;;;;;;;4.07;2.30;;;;;;;;;;5037944;28;20210;-76
2021/10/31 12:31:30;;;;;;;2.97;2.20;;;;;;;;;;5039239;28;20319;-76
2021/10/31 12:34:16;;;;;;;3.63;2.30;;;;;;;;;;5038410;28;20227;-76
2021/10/31 12:36:46;;;;;;;3.07;2.30;;;;;;;;;;5038393;28;20799;-76
2021/10/31 12:39:48;;;;;;;3.60;2.30;;;;;;;;;;5038540;28;20234;-76
2021/10/31 12:42:16;;;;;;;3.53;1.67;;;;;;;;;;5039101;28;20551;-76
2021/10/31 12:44:44;;;;;;;4.33;2.70;;;;;;;;;;5037402;28;20255;-76
2021/10/31 12:47:16;;;;;;;2.70;2.13;;;;;;;;;;5038698;28;20816;-76
2021/10/31 12:49:43;;;;;;;2.70;2.37;;;;;;;;;;5039021;28;20317;-77
2021/10/31 12:52:21;;;;;;;3.13;2.13;;;;;;;;;;5037197;28;21049;-76
2021/10/31 12:54:55;;;;;;;3.27;2.10;;;;;;;;;;5037750;28;20235;-76
2021/10/31 12:57:22;;;;;;;3.27;2.07;;;;;;;;;;5038302;28;20321;-76
2021/10/31 12:59:50;;;;;;;3.70;1.93;;;;;;;;;;5038366;28;20210;-76
2021/10/31 13:02:21;;;;;;;3.57;2.33;;;;;;;;;;5037306;28;21150;-77
2021/10/31 13:04:53;;;;;;;6.93;1.87;;;;;;;;;;5038736;28;20318;-75
2021/10/31 13:07:24;;;;;;;3.17;2.63;;;;;;;;;;5037144;28;20749;-76
2021/10/31 13:09:52;;;;;;;2.40;2.17;;;;;;;;;;5039224;28;20871;-76
2021/10/31 13:12:24;;;;;;;1.97;1.77;;;;;;;;;;5037802;28;20222;-76
2021/10/31 13:14:50;;;;;;;2.43;1.83;;;;;;;;;;5038622;28;20310;-76
2021/10/31 13:17:18;;;;;;;3.43;1.67;;;;;;;;;;5037912;28;20959;-76
2021/10/31 13:19:46;;;;;;;3.27;1.77;;;;;;;;;;5038838;28;20294;-76
2021/10/31 13:22:16;;;;;;;3.90;1.80;;;;;;;;;;5038324;28;20226;-76
2021/10/31 13:24:50;;;;;;;3.37;1.60;;;;;;;;;;5037547;28;20230;-76
2021/10/31 13:27:21;;;;;;;2.10;1.90;;;;;;;;;;5037254;28;20321;-76
2021/10/31 13:29:50;;;;;;;3.57;2.00;;;;;;;;;;5036160;28;20484;-76
2021/10/31 13:32:20;;;;;;;4.63;2.03;;;;;;;;;;5036945;28;20235;-76
2021/10/31 13:34:48;;;;;;;3.60;1.60;;;;;;;;;;5037693;28;20235;-76
2021/10/31 13:37:17;;;;;;;2.77;1.80;;;;;;;;;;5039394;28;20223;-76
2021/10/31 13:39:54;;;;;;;5.23;1.80;;;;;;;;;;5036633;28;20220;-76
2021/10/31 13:42:26;;;;;;;2.67;2.10;;;;;;;;;;5036594;28;20212;-76
2021/10/31 13:44:53;;;;;;;3.07;2.40;;;;;;;;;;5037434;28;20203;-76
2021/10/31 13:47:40;;;;;;;2.53;2.10;;;;;;;;;;5037721;28;20235;-76
2021/10/31 13:50:10;;;;;;;4.67;2.63;;;;;;;;;;5035265;28;20235;-77
2021/10/31 13:52:37;;;;;;;2.77;2.20;;;;;;;;;;5037288;28;20662;-76
2021/10/31 13:55:08;;;;;;;6.23;2.60;;;;;;;;;;5036103;28;20265;-77
2021/10/31 13:57:36;;;;;;;3.40;3.10;;;;;;;;;;5036759;28;20218;-76
2021/10/31 14:00:11;;;;;;;2.87;2.27;;;;;;;;;;5036503;28;20213;-76
2021/10/31 14:02:39;;;;;;;4.23;2.77;;;;;;;;;;5038244;28;20261;-76
2021/10/31 14:05:08;;;;;;;4.80;2.33;;;;;;;;;;5036675;28;20284;-76
2021/10/31 14:07:36;;;;;;;3.80;2.33;;;;;;;;;;5038451;28;20274;-76
2021/10/31 14:10:04;;;;;;;5.17;2.90;;;;;;;;;;5035921;28;20329;-76
2021/10/31 14:12:30;;;;;;;2.50;2.30;;;;;;;;;;5037396;28;20304;-76
2021/10/31 14:15:03;;;;;;;3.83;2.60;;;;;;;;;;5035646;28;20202;-76
2021/10/31 14:17:30;;;;;;;3.93;2.80;;;;;;;;;;5035896;28;20247;-76
2021/10/31 14:19:59;;;;;;;7.10;3.83;;;;;;;;;;5036966;28;20226;-76
2021/10/31 14:22:29;;;;;;;3.73;3.10;;;;;;;;;;5034805;28;20264;-76
2021/10/31 14:25:06;;;;;;;6.07;3.20;;;;;;;;;;5037120;28;20720;-76
2021/10/31 14:27:36;;;;;;;5.90;4.37;;;;;;;;;;5036089;28;20288;-76
2021/10/31 14:30:14;;;;;;;4.10;3.70;;;;;;;;;;5036125;28;20218;-76
2021/10/31 14:32:48;;;;;;;3.53;3.23;;;;;;;;;;5034451;28;20249;-76
2021/10/31 14:35:17;;;;;;;4.97;3.27;;;;;;;;;;5035651;28;20219;-76
2021/10/31 14:38:01;;;;;;;3.90;3.40;;;;;;;;;;5035685;28;20202;-76
2021/10/31 14:40:28;;;;;;;4.73;3.50;;;;;;;;;;5036378;28;20216;-76